sensor_id;sensor_type;location;lat;lon;timestamp;temperature;humidity
75281;HTU21D;63874;47.230;39.620;2023-03-14T00:02:26;3.58;50.82
75281;HTU21D;63874;47.230;39.620;2023-03-14T00:04:54;3.54;50.98
75281;HTU21D;63874;47.230;39.620;2023-03-14T00:07:21;3.52;51.13
75281;HTU21D;63874;47.230;39.620;2023-03-14T00:09:50;3.49;51.18
75281;HTU21D;63874;47.230;39.620;2023-03-14T00:12:16;3.47;51.21
75281;HTU21D;63874;47.230;39.620;2023-03-14T00:14:42;3.44;51.23
75281;HTU21D;63874;47.230;39.620;2023-03-14T00:17:09;3.43;51.30
75281;HTU21D;63874;47.230;39.620;2023-03-14T00:19:35;3.41;51.40
75281;HTU21D;63874;47.230;39.620;2023-03-14T00:22:00;3.38;51.47
75281;HTU21D;63874;47.230;39.620;2023-03-14T00:24:26;3.32;51.59
75281;HTU21D;63874;47.230;39.620;2023-03-14T00:26:52;3.31;51.77
75281;HTU21D;63874;47.230;39.620;2023-03-14T00:29:18;3.30;51.91
75281;HTU21D;63874;47.230;39.620;2023-03-14T00:31:44;3.21;51.85
75281;HTU21D;63874;47.230;39.620;2023-03-14T00:34:10;3.17;52.07
75281;HTU21D;63874;47.230;39.620;2023-03-14T00:36:36;3.10;52.11
75281;HTU21D;63874;47.230;39.620;2023-03-14T00:39:02;3.08;52.44
75281;HTU21D;63874;47.230;39.620;2023-03-14T00:41:30;3.00;52.47
75281;HTU21D;63874;47.230;39.620;2023-03-14T00:43:56;2.99;52.60
75281;HTU21D;63874;47.230;39.620;2023-03-14T00:46:22;2.96;52.69
75281;HTU21D;63874;47.230;39.620;2023-03-14T00:48:48;2.90;52.85
75281;HTU21D;63874;47.230;39.620;2023-03-14T00:51:15;2.90;52.90
75281;HTU21D;63874;47.230;39.620;2023-03-14T00:53:43;2.91;53.10
75281;HTU21D;63874;47.230;39.620;2023-03-14T00:56:11;2.93;53.16
75281;HTU21D;63874;47.230;39.620;2023-03-14T00:58:38;2.90;53.20
75281;HTU21D;63874;47.230;39.620;2023-03-14T01:01:08;2.88;53.34
75281;HTU21D;63874;47.230;39.620;2023-03-14T01:03:35;2.85;53.42
75281;HTU21D;63874;47.230;39.620;2023-03-14T01:08:34;2.83;53.65
75281;HTU21D;63874;47.230;39.620;2023-03-14T01:11:05;2.80;53.85
75281;HTU21D;63874;47.230;39.620;2023-03-14T01:13:31;2.80;53.90
75281;HTU21D;63874;47.230;39.620;2023-03-14T01:16:00;2.80;54.05
75281;HTU21D;63874;47.230;39.620;2023-03-14T01:18:26;2.72;53.89
75281;HTU21D;63874;47.230;39.620;2023-03-14T01:20:52;2.72;54.39
75281;HTU21D;63874;47.230;39.620;2023-03-14T01:23:17;2.70;54.20
75281;HTU21D;63874;47.230;39.620;2023-03-14T01:25:43;2.69;54.23
75281;HTU21D;63874;47.230;39.620;2023-03-14T01:28:09;2.68;54.26
75281;HTU21D;63874;47.230;39.620;2023-03-14T01:30:35;2.68;54.31
75281;HTU21D;63874;47.230;39.620;2023-03-14T01:33:01;2.71;54.26
75281;HTU21D;63874;47.230;39.620;2023-03-14T01:35:27;2.78;54.25
75281;HTU21D;63874;47.230;39.620;2023-03-14T01:37:55;2.86;54.23
75281;HTU21D;63874;47.230;39.620;2023-03-14T01:40:22;2.90;54.14
75281;HTU21D;63874;47.230;39.620;2023-03-14T01:43:06;2.91;54.23
75281;HTU21D;63874;47.230;39.620;2023-03-14T01:48:42;2.90;54.17
75281;HTU21D;63874;47.230;39.620;2023-03-14T01:51:12;2.90;54.16
75281;HTU21D;63874;47.230;39.620;2023-03-14T01:53:40;2.91;54.29
75281;HTU21D;63874;47.230;39.620;2023-03-14T01:56:09;2.97;54.20
75281;HTU21D;63874;47.230;39.620;2023-03-14T01:58:37;2.99;54.04
75281;HTU21D;63874;47.230;39.620;2023-03-14T02:01:05;3.04;54.04
75281;HTU21D;63874;47.230;39.620;2023-03-14T02:03:37;3.01;54.07
75281;HTU21D;63874;47.230;39.620;2023-03-14T02:06:06;3.00;54.12
75281;HTU21D;63874;47.230;39.620;2023-03-14T02:08:37;3.01;54.11
75281;HTU21D;63874;47.230;39.620;2023-03-14T02:11:08;3.05;54.03
75281;HTU21D;63874;47.230;39.620;2023-03-14T02:13:53;3.01;54.02
75281;HTU21D;63874;47.230;39.620;2023-03-14T02:16:24;3.01;54.10
75281;HTU21D;63874;47.230;39.620;2023-03-14T02:22:42;3.02;54.01
75281;HTU21D;63874;47.230;39.620;2023-03-14T02:25:34;3.01;54.17
75281;HTU21D;63874;47.230;39.620;2023-03-14T02:28:03;2.98;54.11
75281;HTU21D;63874;47.230;39.620;2023-03-14T02:30:31;2.95;54.17
75281;HTU21D;63874;47.230;39.620;2023-03-14T02:33:10;2.95;54.23
75281;HTU21D;63874;47.230;39.620;2023-03-14T02:35:43;2.94;54.25
75281;HTU21D;63874;47.230;39.620;2023-03-14T02:38:50;2.95;54.29
75281;HTU21D;63874;47.230;39.620;2023-03-14T02:41:18;2.99;54.44
75281;HTU21D;63874;47.230;39.620;2023-03-14T02:43:51;2.96;54.28
75281;HTU21D;63874;47.230;39.620;2023-03-14T02:46:20;2.98;54.30
75281;HTU21D;63874;47.230;39.620;2023-03-14T02:48:51;2.97;54.35
75281;HTU21D;63874;47.230;39.620;2023-03-14T02:51:20;2.98;54.33
75281;HTU21D;63874;47.230;39.620;2023-03-14T02:53:47;3.00;54.39
75281;HTU21D;63874;47.230;39.620;2023-03-14T02:56:14;3.00;54.30
75281;HTU21D;63874;47.230;39.620;2023-03-14T02:58:40;3.00;54.34
75281;HTU21D;63874;47.230;39.620;2023-03-14T03:01:21;3.01;54.27
75281;HTU21D;63874;47.230;39.620;2023-03-14T03:03:47;2.95;54.41
75281;HTU21D;63874;47.230;39.620;2023-03-14T03:06:13;2.90;54.39
75281;HTU21D;63874;47.230;39.620;2023-03-14T03:08:39;2.89;54.49
75281;HTU21D;63874;47.230;39.620;2023-03-14T03:11:05;2.87;54.76
75281;HTU21D;63874;47.230;39.620;2023-03-14T03:13:33;2.89;54.68
75281;HTU21D;63874;47.230;39.620;2023-03-14T03:16:01;2.88;54.69
75281;HTU21D;63874;47.230;39.620;2023-03-14T03:18:27;2.87;54.61
75281;HTU21D;63874;47.230;39.620;2023-03-14T03:20:52;2.88;54.75
75281;HTU21D;63874;47.230;39.620;2023-03-14T03:23:18;2.86;54.57
75281;HTU21D;63874;47.230;39.620;2023-03-14T03:25:48;2.82;54.77
75281;HTU21D;63874;47.230;39.620;2023-03-14T03:28:14;2.78;54.88
75281;HTU21D;63874;47.230;39.620;2023-03-14T03:30:40;2.74;54.97
75281;HTU21D;63874;47.230;39.620;2023-03-14T03:33:07;2.71;54.84
75281;HTU21D;63874;47.230;39.620;2023-03-14T03:35:34;2.67;55.14
75281;HTU21D;63874;47.230;39.620;2023-03-14T03:38:00;2.69;55.19
75281;HTU21D;63874;47.230;39.620;2023-03-14T03:40:26;2.68;55.31
75281;HTU21D;63874;47.230;39.620;2023-03-14T03:42:52;2.69;55.24
75281;HTU21D;63874;47.230;39.620;2023-03-14T03:45:18;2.68;55.44
75281;HTU21D;63874;47.230;39.620;2023-03-14T03:47:50;2.68;55.55
75281;HTU21D;63874;47.230;39.620;2023-03-14T03:50:16;2.64;55.47
75281;HTU21D;63874;47.230;39.620;2023-03-14T03:52:42;2.62;55.67
75281;HTU21D;63874;47.230;39.620;2023-03-14T03:55:08;2.68;56.00
75281;HTU21D;63874;47.230;39.620;2023-03-14T03:57:34;2.69;55.67
75281;HTU21D;63874;47.230;39.620;2023-03-14T04:00:00;2.69;56.13
75281;HTU21D;63874;47.230;39.620;2023-03-14T04:02:27;2.71;55.92
75281;HTU21D;63874;47.230;39.620;2023-03-14T04:04:53;2.75;55.99
75281;HTU21D;63874;47.230;39.620;2023-03-14T04:07:19;2.83;55.97
75281;HTU21D;63874;47.230;39.620;2023-03-14T04:09:45;2.91;56.08
75281;HTU21D;63874;47.230;39.620;2023-03-14T04:12:31;3.02;55.86
75281;HTU21D;63874;47.230;39.620;2023-03-14T04:15:17;3.05;55.85
75281;HTU21D;63874;47.230;39.620;2023-03-14T04:17:46;3.09;55.81
75281;HTU21D;63874;47.230;39.620;2023-03-14T04:20:14;3.14;55.80
75281;HTU21D;63874;47.230;39.620;2023-03-14T04:22:40;3.18;55.69
75281;HTU21D;63874;47.230;39.620;2023-03-14T04:25:06;3.27;55.80
75281;HTU21D;63874;47.230;39.620;2023-03-14T04:27:37;3.35;55.69
75281;HTU21D;63874;47.230;39.620;2023-03-14T04:30:09;3.44;55.53
75281;HTU21D;63874;47.230;39.620;2023-03-14T04:32:46;3.54;55.49
75281;HTU21D;63874;47.230;39.620;2023-03-14T04:35:12;3.53;55.39
75281;HTU21D;63874;47.230;39.620;2023-03-14T04:37:38;3.57;55.67
75281;HTU21D;63874;47.230;39.620;2023-03-14T04:40:06;3.63;55.48
75281;HTU21D;63874;47.230;39.620;2023-03-14T04:42:33;3.68;55.53
75281;HTU21D;63874;47.230;39.620;2023-03-14T04:44:58;3.76;55.49
75281;HTU21D;63874;47.230;39.620;2023-03-14T04:47:28;3.78;55.42
75281;HTU21D;63874;47.230;39.620;2023-03-14T04:49:54;3.87;55.41
75281;HTU21D;63874;47.230;39.620;2023-03-14T04:52:22;3.98;55.09
75281;HTU21D;63874;47.230;39.620;2023-03-14T04:54:48;4.04;55.10
75281;HTU21D;63874;47.230;39.620;2023-03-14T04:57:14;4.15;54.94
75281;HTU21D;63874;47.230;39.620;2023-03-14T04:59:40;4.26;54.78
75281;HTU21D;63874;47.230;39.620;2023-03-14T05:02:22;4.35;54.61
75281;HTU21D;63874;47.230;39.620;2023-03-14T05:05:01;4.46;54.37
75281;HTU21D;63874;47.230;39.620;2023-03-14T05:08:02;4.51;53.96
75281;HTU21D;63874;47.230;39.620;2023-03-14T05:11:03;4.56;53.87
75281;HTU21D;63874;47.230;39.620;2023-03-14T05:13:47;4.60;53.69
75281;HTU21D;63874;47.230;39.620;2023-03-14T05:16:36;4.65;53.34
75281;HTU21D;63874;47.230;39.620;2023-03-14T05:19:23;4.63;53.53
75281;HTU21D;63874;47.230;39.620;2023-03-14T05:22:08;4.65;53.52
75281;HTU21D;63874;47.230;39.620;2023-03-14T05:24:33;4.71;53.32
75281;HTU21D;63874;47.230;39.620;2023-03-14T05:26:59;4.67;53.44
75281;HTU21D;63874;47.230;39.620;2023-03-14T05:29:47;4.68;53.60
75281;HTU21D;63874;47.230;39.620;2023-03-14T05:32:40;4.67;53.58
75281;HTU21D;63874;47.230;39.620;2023-03-14T05:35:08;4.69;53.76
75281;HTU21D;63874;47.230;39.620;2023-03-14T05:37:45;4.71;53.70
75281;HTU21D;63874;47.230;39.620;2023-03-14T05:40:30;4.72;53.68
75281;HTU21D;63874;47.230;39.620;2023-03-14T05:43:16;4.71;54.01
75281;HTU21D;63874;47.230;39.620;2023-03-14T05:46:17;4.82;53.85
75281;HTU21D;63874;47.230;39.620;2023-03-14T05:49:02;4.88;53.62
75281;HTU21D;63874;47.230;39.620;2023-03-14T05:51:46;4.93;53.36
75281;HTU21D;63874;47.230;39.620;2023-03-14T05:54:18;4.93;53.45
75281;HTU21D;63874;47.230;39.620;2023-03-14T05:56:44;4.96;53.50
75281;HTU21D;63874;47.230;39.620;2023-03-14T05:59:28;5.05;53.10
75281;HTU21D;63874;47.230;39.620;2023-03-14T06:02:03;5.08;53.04
75281;HTU21D;63874;47.230;39.620;2023-03-14T06:04:39;5.09;52.75
75281;HTU21D;63874;47.230;39.620;2023-03-14T06:07:05;5.07;52.90
75281;HTU21D;63874;47.230;39.620;2023-03-14T06:09:31;5.06;52.92
75281;HTU21D;63874;47.230;39.620;2023-03-14T06:12:00;5.07;52.91
75281;HTU21D;63874;47.230;39.620;2023-03-14T06:14:29;5.08;52.98
75281;HTU21D;63874;47.230;39.620;2023-03-14T06:16:56;5.09;53.03
75281;HTU21D;63874;47.230;39.620;2023-03-14T06:19:25;5.11;53.04
75281;HTU21D;63874;47.230;39.620;2023-03-14T06:21:51;5.08;53.24
75281;HTU21D;63874;47.230;39.620;2023-03-14T06:24:18;5.15;53.43
75281;HTU21D;63874;47.230;39.620;2023-03-14T06:26:47;5.18;53.45
75281;HTU21D;63874;47.230;39.620;2023-03-14T06:29:13;5.25;53.52
75281;HTU21D;63874;47.230;39.620;2023-03-14T06:31:40;5.32;53.49
75281;HTU21D;63874;47.230;39.620;2023-03-14T06:34:07;5.41;53.39
75281;HTU21D;63874;47.230;39.620;2023-03-14T06:36:33;5.51;53.01
75281;HTU21D;63874;47.230;39.620;2023-03-14T06:38:59;5.59;52.88
75281;HTU21D;63874;47.230;39.620;2023-03-14T06:41:26;5.63;52.86
75281;HTU21D;63874;47.230;39.620;2023-03-14T06:43:53;5.67;52.44
75281;HTU21D;63874;47.230;39.620;2023-03-14T06:46:20;5.67;52.61
75281;HTU21D;63874;47.230;39.620;2023-03-14T06:48:46;5.71;52.63
75281;HTU21D;63874;47.230;39.620;2023-03-14T06:51:18;5.79;52.36
75281;HTU21D;63874;47.230;39.620;2023-03-14T06:53:47;5.77;52.64
75281;HTU21D;63874;47.230;39.620;2023-03-14T06:56:14;5.85;52.48
75281;HTU21D;63874;47.230;39.620;2023-03-14T06:58:41;5.89;52.62
75281;HTU21D;63874;47.230;39.620;2023-03-14T07:01:25;5.98;52.47
75281;HTU21D;63874;47.230;39.620;2023-03-14T07:03:52;6.07;51.91
75281;HTU21D;63874;47.230;39.620;2023-03-14T07:06:19;6.09;51.71
75281;HTU21D;63874;47.230;39.620;2023-03-14T07:08:45;6.13;51.60
75281;HTU21D;63874;47.230;39.620;2023-03-14T07:11:11;6.21;50.89
75281;HTU21D;63874;47.230;39.620;2023-03-14T07:13:38;6.22;50.84
75281;HTU21D;63874;47.230;39.620;2023-03-14T07:16:06;6.23;51.24
75281;HTU21D;63874;47.230;39.620;2023-03-14T07:18:33;6.33;51.52
75281;HTU21D;63874;47.230;39.620;2023-03-14T07:21:02;6.65;51.26
75281;HTU21D;63874;47.230;39.620;2023-03-14T07:23:28;6.85;49.95
75281;HTU21D;63874;47.230;39.620;2023-03-14T07:25:55;6.86;49.37
75281;HTU21D;63874;47.230;39.620;2023-03-14T07:28:24;6.78;49.51
75281;HTU21D;63874;47.230;39.620;2023-03-14T07:30:56;6.83;49.16
75281;HTU21D;63874;47.230;39.620;2023-03-14T07:33:27;6.80;49.05
75281;HTU21D;63874;47.230;39.620;2023-03-14T07:35:53;6.86;48.73
75281;HTU21D;63874;47.230;39.620;2023-03-14T07:38:19;6.86;49.04
75281;HTU21D;63874;47.230;39.620;2023-03-14T07:41:06;6.88;48.86
75281;HTU21D;63874;47.230;39.620;2023-03-14T07:43:35;6.91;49.06
75281;HTU21D;63874;47.230;39.620;2023-03-14T07:46:01;6.97;49.35
75281;HTU21D;63874;47.230;39.620;2023-03-14T07:48:27;7.07;49.35
75281;HTU21D;63874;47.230;39.620;2023-03-14T07:50:54;7.18;49.44
75281;HTU21D;63874;47.230;39.620;2023-03-14T07:53:21;7.30;49.24
75281;HTU21D;63874;47.230;39.620;2023-03-14T07:55:47;7.40;49.07
75281;HTU21D;63874;47.230;39.620;2023-03-14T07:58:14;7.47;49.07
75281;HTU21D;63874;47.230;39.620;2023-03-14T08:00:40;7.53;48.81
75281;HTU21D;63874;47.230;39.620;2023-03-14T08:03:06;7.57;48.54
75281;HTU21D;63874;47.230;39.620;2023-03-14T08:05:35;7.61;48.02
75281;HTU21D;63874;47.230;39.620;2023-03-14T08:08:01;7.67;48.41
75281;HTU21D;63874;47.230;39.620;2023-03-14T08:10:27;7.77;48.19
75281;HTU21D;63874;47.230;39.620;2023-03-14T08:12:55;7.91;48.24
75281;HTU21D;63874;47.230;39.620;2023-03-14T08:15:22;7.99;48.41
75281;HTU21D;63874;47.230;39.620;2023-03-14T08:17:49;8.04;48.23
75281;HTU21D;63874;47.230;39.620;2023-03-14T08:20:17;8.12;48.23
75281;HTU21D;63874;47.230;39.620;2023-03-14T08:22:43;8.20;48.31
75281;HTU21D;63874;47.230;39.620;2023-03-14T08:25:09;8.27;48.52
75281;HTU21D;63874;47.230;39.620;2023-03-14T08:27:36;8.39;47.05
75281;HTU21D;63874;47.230;39.620;2023-03-14T08:30:09;8.43;47.36
75281;HTU21D;63874;47.230;39.620;2023-03-14T08:32:36;8.48;47.02
75281;HTU21D;63874;47.230;39.620;2023-03-14T08:35:01;8.46;46.65
75281;HTU21D;63874;47.230;39.620;2023-03-14T08:37:27;8.50;46.46
75281;HTU21D;63874;47.230;39.620;2023-03-14T08:39:53;8.57;46.05
75281;HTU21D;63874;47.230;39.620;2023-03-14T08:42:19;8.63;45.18
75281;HTU21D;63874;47.230;39.620;2023-03-14T08:44:45;8.61;45.64
75281;HTU21D;63874;47.230;39.620;2023-03-14T08:47:11;8.64;46.23
75281;HTU21D;63874;47.230;39.620;2023-03-14T08:49:37;8.74;46.32
75281;HTU21D;63874;47.230;39.620;2023-03-14T08:52:03;8.88;45.78
75281;HTU21D;63874;47.230;39.620;2023-03-14T08:54:30;8.95;45.68
75281;HTU21D;63874;47.230;39.620;2023-03-14T08:56:56;9.06;45.07
75281;HTU21D;63874;47.230;39.620;2023-03-14T08:59:23;9.07;44.61
75281;HTU21D;63874;47.230;39.620;2023-03-14T09:01:49;9.08;44.90
75281;HTU21D;63874;47.230;39.620;2023-03-14T09:04:15;9.10;44.57
75281;HTU21D;63874;47.230;39.620;2023-03-14T09:06:41;9.12;44.49
75281;HTU21D;63874;47.230;39.620;2023-03-14T09:09:07;9.20;44.48
75281;HTU21D;63874;47.230;39.620;2023-03-14T09:11:34;9.33;44.61
75281;HTU21D;63874;47.230;39.620;2023-03-14T09:14:00;9.46;44.32
75281;HTU21D;63874;47.230;39.620;2023-03-14T09:16:26;9.65;43.37
75281;HTU21D;63874;47.230;39.620;2023-03-14T09:18:52;9.74;43.26
75281;HTU21D;63874;47.230;39.620;2023-03-14T09:21:21;9.89;43.92
75281;HTU21D;63874;47.230;39.620;2023-03-14T09:23:47;10.20;43.92
75281;HTU21D;63874;47.230;39.620;2023-03-14T09:26:13;10.97;41.94
75281;HTU21D;63874;47.230;39.620;2023-03-14T09:28:38;11.93;40.33
75281;HTU21D;63874;47.230;39.620;2023-03-14T09:31:09;13.17;39.67
75281;HTU21D;63874;47.230;39.620;2023-03-14T09:33:36;14.17;37.03
75281;HTU21D;63874;47.230;39.620;2023-03-14T09:36:03;15.10;36.17
75281;HTU21D;63874;47.230;39.620;2023-03-14T09:38:29;15.85;33.23
75281;HTU21D;63874;47.230;39.620;2023-03-14T09:40:57;16.04;31.75
75281;HTU21D;63874;47.230;39.620;2023-03-14T09:43:24;16.43;31.67
75281;HTU21D;63874;47.230;39.620;2023-03-14T09:45:51;17.01;32.31
75281;HTU21D;63874;47.230;39.620;2023-03-14T09:48:22;17.74;29.98
75281;HTU21D;63874;47.230;39.620;2023-03-14T09:50:55;17.87;29.33
75281;HTU21D;63874;47.230;39.620;2023-03-14T09:53:45;18.42;29.88
75281;HTU21D;63874;47.230;39.620;2023-03-14T09:56:25;19.01;28.46
75281;HTU21D;63874;47.230;39.620;2023-03-14T09:58:57;19.55;25.94
75281;HTU21D;63874;47.230;39.620;2023-03-14T10:01:29;19.31;25.66
75281;HTU21D;63874;47.230;39.620;2023-03-14T10:03:57;19.35;26.27
75281;HTU21D;63874;47.230;39.620;2023-03-14T10:06:29;19.07;25.28
75281;HTU21D;63874;47.230;39.620;2023-03-14T10:08:56;19.12;26.81
75281;HTU21D;63874;47.230;39.620;2023-03-14T10:11:23;19.79;26.08
75281;HTU21D;63874;47.230;39.620;2023-03-14T10:14:10;20.47;25.59
75281;HTU21D;63874;47.230;39.620;2023-03-14T10:16:43;20.78;23.86
75281;HTU21D;63874;47.230;39.620;2023-03-14T10:19:15;20.45;24.12
75281;HTU21D;63874;47.230;39.620;2023-03-14T10:21:43;20.63;24.33
75281;HTU21D;63874;47.230;39.620;2023-03-14T10:24:15;20.83;24.08
75281;HTU21D;63874;47.230;39.620;2023-03-14T10:26:42;21.20;23.91
75281;HTU21D;63874;47.230;39.620;2023-03-14T10:29:12;21.49;23.40
75281;HTU21D;63874;47.230;39.620;2023-03-14T10:31:56;21.94;22.47
75281;HTU21D;63874;47.230;39.620;2023-03-14T10:34:36;21.83;22.09
75281;HTU21D;63874;47.230;39.620;2023-03-14T10:37:22;21.27;21.61
75281;HTU21D;63874;47.230;39.620;2023-03-14T10:39:50;20.64;22.11
75281;HTU21D;63874;47.230;39.620;2023-03-14T10:42:27;20.40;22.80
75281;HTU21D;63874;47.230;39.620;2023-03-14T10:44:56;20.58;23.92
75281;HTU21D;63874;47.230;39.620;2023-03-14T10:47:25;20.98;23.21
75281;HTU21D;63874;47.230;39.620;2023-03-14T10:49:52;21.40;22.98
75281;HTU21D;63874;47.230;39.620;2023-03-14T10:52:27;21.97;22.43
75281;HTU21D;63874;47.230;39.620;2023-03-14T10:55:02;22.34;20.66
75281;HTU21D;63874;47.230;39.620;2023-03-14T10:57:28;21.50;21.29
75281;HTU21D;63874;47.230;39.620;2023-03-14T10:59:55;21.13;22.39
75281;HTU21D;63874;47.230;39.620;2023-03-14T11:07:45;19.68;22.92
75281;HTU21D;63874;47.230;39.620;2023-03-14T11:10:19;18.18;24.69
75281;HTU21D;63874;47.230;39.620;2023-03-14T11:18:44;14.63;30.34
75281;HTU21D;63874;47.230;39.620;2023-03-14T11:26:42;12.59;34.63
75281;HTU21D;63874;47.230;39.620;2023-03-14T11:29:35;12.20;36.27
75281;HTU21D;63874;47.230;39.620;2023-03-14T11:32:13;11.92;36.58
75281;HTU21D;63874;47.230;39.620;2023-03-14T11:34:50;11.68;36.93
75281;HTU21D;63874;47.230;39.620;2023-03-14T11:37:36;11.40;37.44
75281;HTU21D;63874;47.230;39.620;2023-03-14T11:42:46;11.19;38.19
75281;HTU21D;63874;47.230;39.620;2023-03-14T11:45:26;11.14;38.72
75281;HTU21D;63874;47.230;39.620;2023-03-14T11:48:15;11.03;39.05
75281;HTU21D;63874;47.230;39.620;2023-03-14T11:50:44;11.02;39.07
75281;HTU21D;63874;47.230;39.620;2023-03-14T11:53:22;11.00;39.19
75281;HTU21D;63874;47.230;39.620;2023-03-14T11:55:51;10.98;39.49
75281;HTU21D;63874;47.230;39.620;2023-03-14T11:58:33;10.94;39.76
75281;HTU21D;63874;47.230;39.620;2023-03-14T12:01:06;10.89;39.90
75281;HTU21D;63874;47.230;39.620;2023-03-14T12:03:58;10.92;40.04
75281;HTU21D;63874;47.230;39.620;2023-03-14T12:09:04;10.90;40.30
75281;HTU21D;63874;47.230;39.620;2023-03-14T12:11:48;10.87;40.28
75281;HTU21D;63874;47.230;39.620;2023-03-14T12:14:33;10.85;40.39
75281;HTU21D;63874;47.230;39.620;2023-03-14T12:17:06;10.85;40.57
75281;HTU21D;63874;47.230;39.620;2023-03-14T12:19:34;10.84;40.78
75281;HTU21D;63874;47.230;39.620;2023-03-14T12:24:36;10.79;40.88
75281;HTU21D;63874;47.230;39.620;2023-03-14T12:27:04;10.78;40.89
75281;HTU21D;63874;47.230;39.620;2023-03-14T12:29:30;10.72;40.88
75281;HTU21D;63874;47.230;39.620;2023-03-14T12:34:40;10.67;41.05
75281;HTU21D;63874;47.230;39.620;2023-03-14T12:42:45;10.65;41.66
75281;HTU21D;63874;47.230;39.620;2023-03-14T12:47:44;10.66;41.53
75281;HTU21D;63874;47.230;39.620;2023-03-14T12:50:19;10.64;41.39
75281;HTU21D;63874;47.230;39.620;2023-03-14T12:56:19;10.60;41.36
75281;HTU21D;63874;47.230;39.620;2023-03-14T13:01:56;10.59;41.78
75281;HTU21D;63874;47.230;39.620;2023-03-14T13:04:33;10.64;41.74
75281;HTU21D;63874;47.230;39.620;2023-03-14T13:07:01;10.67;41.76
75281;HTU21D;63874;47.230;39.620;2023-03-14T13:12:10;10.71;41.71
75281;HTU21D;63874;47.230;39.620;2023-03-14T13:14:43;10.68;41.78
75281;HTU21D;63874;47.230;39.620;2023-03-14T13:17:11;10.68;41.86
75281;HTU21D;63874;47.230;39.620;2023-03-14T13:19:38;10.65;42.00
75281;HTU21D;63874;47.230;39.620;2023-03-14T13:22:12;10.63;42.20
75281;HTU21D;63874;47.230;39.620;2023-03-14T13:24:40;10.63;42.26
75281;HTU21D;63874;47.230;39.620;2023-03-14T13:27:19;10.59;42.19
75281;HTU21D;63874;47.230;39.620;2023-03-14T13:29:49;10.57;42.35
75281;HTU21D;63874;47.230;39.620;2023-03-14T13:32:27;10.55;42.47
75281;HTU21D;63874;47.230;39.620;2023-03-14T13:34:57;10.52;42.48
75281;HTU21D;63874;47.230;39.620;2023-03-14T13:37:25;10.51;42.41
75281;HTU21D;63874;47.230;39.620;2023-03-14T13:39:56;10.51;42.50
75281;HTU21D;63874;47.230;39.620;2023-03-14T13:42:28;10.49;42.53
75281;HTU21D;63874;47.230;39.620;2023-03-14T13:44:54;10.45;42.26
75281;HTU21D;63874;47.230;39.620;2023-03-14T13:47:23;10.41;42.34
75281;HTU21D;63874;47.230;39.620;2023-03-14T13:49:50;10.37;42.50
75281;HTU21D;63874;47.230;39.620;2023-03-14T13:52:28;10.35;42.51
75281;HTU21D;63874;47.230;39.620;2023-03-14T13:54:56;10.33;42.44
75281;HTU21D;63874;47.230;39.620;2023-03-14T13:57:22;10.31;42.49
75281;HTU21D;63874;47.230;39.620;2023-03-14T14:00:04;10.31;42.44
75281;HTU21D;63874;47.230;39.620;2023-03-14T14:02:39;10.26;42.41
75281;HTU21D;63874;47.230;39.620;2023-03-14T14:05:05;10.22;42.50
75281;HTU21D;63874;47.230;39.620;2023-03-14T14:07:31;10.22;42.67
75281;HTU21D;63874;47.230;39.620;2023-03-14T14:09:58;10.21;42.84
75281;HTU21D;63874;47.230;39.620;2023-03-14T14:12:39;10.24;42.87
75281;HTU21D;63874;47.230;39.620;2023-03-14T14:15:22;10.25;42.91
75281;HTU21D;63874;47.230;39.620;2023-03-14T14:17:52;10.23;43.06
75281;HTU21D;63874;47.230;39.620;2023-03-14T14:22:45;10.18;42.87
75281;HTU21D;63874;47.230;39.620;2023-03-14T14:25:15;10.11;42.82
75281;HTU21D;63874;47.230;39.620;2023-03-14T14:27:43;10.06;42.68
75281;HTU21D;63874;47.230;39.620;2023-03-14T14:32:46;9.92;42.92
75281;HTU21D;63874;47.230;39.620;2023-03-14T14:35:24;9.85;43.19
75281;HTU21D;63874;47.230;39.620;2023-03-14T14:37:50;9.84;43.30
75281;HTU21D;63874;47.230;39.620;2023-03-14T14:40:43;9.81;43.61
75281;HTU21D;63874;47.230;39.620;2023-03-14T14:43:16;9.79;43.77
75281;HTU21D;63874;47.230;39.620;2023-03-14T14:45:45;9.70;43.85
75281;HTU21D;63874;47.230;39.620;2023-03-14T14:48:13;9.64;43.88
75281;HTU21D;63874;47.230;39.620;2023-03-14T14:50:50;9.54;43.92
75281;HTU21D;63874;47.230;39.620;2023-03-14T14:53:30;9.48;43.93
75281;HTU21D;63874;47.230;39.620;2023-03-14T14:55:59;9.42;44.03
75281;HTU21D;63874;47.230;39.620;2023-03-14T14:58:34;9.37;44.25
75281;HTU21D;63874;47.230;39.620;2023-03-14T15:01:21;9.26;44.67
75281;HTU21D;63874;47.230;39.620;2023-03-14T15:03:51;9.22;44.78
75281;HTU21D;63874;47.230;39.620;2023-03-14T15:06:18;9.15;44.95
75281;HTU21D;63874;47.230;39.620;2023-03-14T15:08:46;9.08;44.93
75281;HTU21D;63874;47.230;39.620;2023-03-14T15:11:21;9.02;44.94
75281;HTU21D;63874;47.230;39.620;2023-03-14T15:13:48;8.95;45.04
75281;HTU21D;63874;47.230;39.620;2023-03-14T15:16:20;8.89;45.12
75281;HTU21D;63874;47.230;39.620;2023-03-14T15:18:52;8.82;45.25
75281;HTU21D;63874;47.230;39.620;2023-03-14T15:21:18;8.82;45.21
75281;HTU21D;63874;47.230;39.620;2023-03-14T15:23:44;8.81;45.21
75281;HTU21D;63874;47.230;39.620;2023-03-14T15:26:15;8.78;45.31
75281;HTU21D;63874;47.230;39.620;2023-03-14T15:28:41;8.75;45.34
75281;HTU21D;63874;47.230;39.620;2023-03-14T15:31:09;8.71;45.54
75281;HTU21D;63874;47.230;39.620;2023-03-14T15:33:36;8.72;45.73
75281;HTU21D;63874;47.230;39.620;2023-03-14T15:36:03;8.68;45.77
75281;HTU21D;63874;47.230;39.620;2023-03-14T15:38:29;8.73;45.99
75281;HTU21D;63874;47.230;39.620;2023-03-14T15:40:55;8.71;46.15
75281;HTU21D;63874;47.230;39.620;2023-03-14T15:43:21;8.70;46.31
75281;HTU21D;63874;47.230;39.620;2023-03-14T15:45:47;8.66;46.47
75281;HTU21D;63874;47.230;39.620;2023-03-14T15:48:19;8.67;46.67
75281;HTU21D;63874;47.230;39.620;2023-03-14T15:50:46;8.63;47.05
75281;HTU21D;63874;47.230;39.620;2023-03-14T15:53:13;8.58;46.84
75281;HTU21D;63874;47.230;39.620;2023-03-14T15:55:38;8.51;47.25
75281;HTU21D;63874;47.230;39.620;2023-03-14T15:58:04;8.48;47.51
75281;HTU21D;63874;47.230;39.620;2023-03-14T16:00:31;8.44;47.60
75281;HTU21D;63874;47.230;39.620;2023-03-14T16:02:57;8.41;47.66
75281;HTU21D;63874;47.230;39.620;2023-03-14T16:05:23;8.39;47.70
75281;HTU21D;63874;47.230;39.620;2023-03-14T16:07:49;8.38;47.92
75281;HTU21D;63874;47.230;39.620;2023-03-14T16:10:15;8.37;47.99
75281;HTU21D;63874;47.230;39.620;2023-03-14T16:12:42;8.32;48.15
75281;HTU21D;63874;47.230;39.620;2023-03-14T16:15:08;8.30;48.12
75281;HTU21D;63874;47.230;39.620;2023-03-14T16:17:35;8.32;48.44
75281;HTU21D;63874;47.230;39.620;2023-03-14T16:20:04;8.32;48.39
75281;HTU21D;63874;47.230;39.620;2023-03-14T16:22:30;8.29;48.35
75281;HTU21D;63874;47.230;39.620;2023-03-14T16:25:07;8.29;48.50
75281;HTU21D;63874;47.230;39.620;2023-03-14T16:27:33;8.23;48.64
75281;HTU21D;63874;47.230;39.620;2023-03-14T16:29:59;8.19;48.58
75281;HTU21D;63874;47.230;39.620;2023-03-14T16:32:25;8.15;48.75